Time;durP1;ratioP1;P1;durP2;ratioP2;P2;SDS_P1;SDS_P2;PMS_P1;PMS_P2;Temp;Humidity;BMP_temperature;BMP_pressure;BME280_temperature;BME280_humidity;BME280_pressure;Samples;Min_cycle;Max_cycle;Signal;HPM_P1;HPM_P2
2023/07/04 00:02:00;;;;;;;13.77;4.93;;;;;;;37.85;nan;100600.19;5106815;28;20074;-48
2023/07/04 00:04:29;;;;;;;10.25;3.78;;;;;;;38.54;nan;100592.19;5103839;28;20116;-48
2023/07/04 00:06:56;;;;;;;13.05;3.25;;;;;;;39.16;nan;100598.31;5103855;28;20056;-48
2023/07/04 00:09:22;;;;;;;13.68;4.35;;;;;;;40.68;nan;100587.44;5112113;28;20040;-47
2023/07/04 00:11:50;;;;;;;9.55;3.95;;;;;;;40.47;nan;100589.34;5100591;28;20574;-47
2023/07/04 00:14:16;;;;;;;11.10;4.30;;;;;;;39.22;nan;100586.22;5099203;28;20048;-48
2023/07/04 00:16:43;;;;;;;7.85;3.90;;;;;;;38.50;nan;100585.53;5096467;28;20051;-47
2023/07/04 00:19:10;;;;;;;10.95;4.00;;;;;;;38.83;nan;100589.19;5096378;28;20047;-48
2023/07/04 00:21:38;;;;;;;18.30;4.93;;;;;;;38.42;nan;100588.75;5112336;28;20073;-48
2023/07/04 00:24:05;;;;;;;10.93;4.35;;;;;;;38.24;nan;100587.19;5113914;28;20115;-48
2023/07/04 00:26:32;;;;;;;8.95;3.50;;;;;;;39.58;nan;100582.84;5083791;28;20059;-48
2023/07/04 00:28:59;;;;;;;8.68;3.70;;;;;;;39.98;nan;100584.19;5113104;28;20044;-48
2023/07/04 00:31:26;;;;;;;8.55;3.80;;;;;;;38.59;nan;100582.31;5111187;28;20056;-48
2023/07/04 00:33:53;;;;;;;8.10;3.80;;;;;;;38.94;nan;100581.81;5096385;28;20052;-48
2023/07/04 00:36:20;;;;;;;9.43;3.72;;;;;;;38.81;nan;100580.34;5095201;28;20071;-48
2023/07/04 00:38:51;;;;;;;9.80;3.90;;;;;;;39.96;nan;100578.94;5095517;28;20048;-47
2023/07/04 00:41:21;;;;;;;12.50;3.60;;;;;;;37.95;nan;100583.78;5095433;28;20098;-48
2023/07/04 00:44:13;;;;;;;9.57;3.80;;;;;;;38.32;nan;100588.63;5115217;27;20609;-48
2023/07/04 00:46:54;;;;;;;12.90;4.38;;;;;;;39.97;nan;100586.13;5100220;28;20047;-47
2023/07/04 00:49:30;;;;;;;15.98;4.05;;;;;;;38.15;nan;100588.72;5107620;28;20048;-48
2023/07/04 00:52:06;;;;;;;13.25;4.18;;;;;;;37.72;nan;100590.38;5100192;28;20040;-48
2023/07/04 00:54:43;;;;;;;15.60;3.83;;;;;;;38.25;nan;100594.34;5105259;28;20047;-48
2023/07/04 00:57:13;;;;;;;16.23;5.15;;;;;;;38.77;nan;100583.88;5106076;28;20055;-48
2023/07/04 00:59:45;;;;;;;16.58;4.35;;;;;;;37.61;nan;100594.88;5108037;28;20055;-48
2023/07/04 01:02:18;;;;;;;8.45;3.55;;;;;;;39.84;nan;100586.63;5111123;28;20053;-48
2023/07/04 01:04:48;;;;;;;8.85;4.43;;;;;;;38.59;nan;100593.34;5099496;28;20056;-48
2023/07/04 01:07:30;;;;;;;8.07;3.53;;;;;;;38.59;nan;100588.66;5097402;28;20056;-48
2023/07/04 01:10:10;;;;;;;15.80;4.53;;;;;;;37.94;nan;100587.59;5114164;28;20372;-48
2023/07/04 01:12:39;;;;;;;10.73;4.13;;;;;;;39.02;nan;100586.03;5101320;28;20048;-48
2023/07/04 01:15:07;;;;;;;19.13;4.18;;;;;;;38.54;nan;100581.16;5107787;28;20136;-48
2023/07/04 01:17:35;;;;;;;14.88;4.30;;;;;;;39.04;nan;100583.81;5095037;28;20063;-49
2023/07/04 01:20:06;;;;;;;19.30;5.28;;;;;;;38.91;nan;100579.59;5107780;28;20059;-49
2023/07/04 01:22:48;;;;;;;14.25;4.13;;;;;;;40.17;nan;100584.56;5113664;28;20051;-49
2023/07/04 01:25:20;;;;;;;10.00;3.83;;;;;;;39.08;nan;100574.78;5110575;28;20047;-48
2023/07/04 01:27:49;;;;;;;10.90;3.85;;;;;;;38.96;nan;100570.50;5098547;28;20055;-48
2023/07/04 01:30:18;;;;;;;13.13;3.60;;;;;;;40.16;nan;100578.16;5102072;28;20052;-48
2023/07/04 01:32:52;;;;;;;11.10;4.20;;;;;;;38.03;nan;100569.53;5101325;28;20044;-48
2023/07/04 01:35:19;;;;;;;11.70;4.57;;;;;;;38.65;nan;100581.31;5105598;28;20056;-48
2023/07/04 01:37:46;;;;;;;11.80;3.88;;;;;;;38.04;nan;100582.22;5102621;28;20055;-48
2023/07/04 01:40:12;;;;;;;15.57;4.40;;;;;;;38.14;nan;100581.53;5095574;28;20052;-48
2023/07/04 01:42:40;;;;;;;14.00;4.57;;;;;;;37.59;nan;100583.25;5100435;28;20048;-48
2023/07/04 01:45:08;;;;;;;13.38;5.00;;;;;;;37.25;nan;100586.06;5099193;28;20070;-48
2023/07/04 01:47:36;;;;;;;17.83;4.22;;;;;;;38.24;nan;100589.09;5104236;28;20077;-48
2023/07/04 01:50:04;;;;;;;14.55;4.28;;;;;;;39.01;nan;100595.41;5107612;28;20562;-48
2023/07/04 01:52:31;;;;;;;8.00;4.15;;;;;;;38.47;nan;100599.03;5094630;28;20064;-48
2023/07/04 01:54:58;;;;;;;22.40;4.28;;;;;;;39.20;nan;100593.94;5099095;28;20125;-48
2023/07/04 01:57:25;;;;;;;10.75;4.10;;;;;;;38.50;nan;100585.53;5095249;28;20462;-48
2023/07/04 01:59:52;;;;;;;14.77;4.80;;;;;;;37.46;nan;100601.00;5097590;28;20052;-48
2023/07/04 02:02:19;;;;;;;20.08;4.13;;;;;;;39.76;nan;100584.34;5099828;28;20040;-48
2023/07/04 02:04:45;;;;;;;17.08;4.30;;;;;;;36.68;nan;100593.31;5096172;28;20044;-48
2023/07/04 02:07:12;;;;;;;9.75;4.55;;;;;;;37.69;nan;100591.69;5107724;28;20051;-48
2023/07/04 02:09:38;;;;;;;16.92;4.68;;;;;;;37.76;nan;100597.84;5101812;28;20055;-48
2023/07/04 02:12:05;;;;;;;8.27;4.00;;;;;;;37.81;nan;100589.69;5109926;28;20040;-48
2023/07/04 02:14:32;;;;;;;14.23;4.25;;;;;;;37.33;nan;100593.09;5109773;28;20203;-49
2023/07/04 02:16:59;;;;;;;14.38;4.07;;;;;;;38.60;nan;100584.84;5097899;28;20063;-48
2023/07/04 02:19:26;;;;;;;11.82;5.07;;;;;;;36.20;nan;100598.16;5112290;28;20055;-48
2023/07/04 02:21:52;;;;;;;11.50;4.32;;;;;;;38.87;nan;100601.34;5098010;28;20052;-48
2023/07/04 02:24:19;;;;;;;13.63;4.43;;;;;;;36.93;nan;100594.91;5098085;28;20081;-48
2023/07/04 02:26:46;;;;;;;10.45;4.35;;;;;;;37.09;nan;100593.22;5098936;28;20050;-48
2023/07/04 02:29:12;;;;;;;13.18;4.22;;;;;;;38.64;nan;100596.19;5097744;28;20048;-48
2023/07/04 02:31:39;;;;;;;15.68;4.80;;;;;;;38.21;nan;100597.91;5101733;28;20113;-48
2023/07/04 02:34:06;;;;;;;10.70;3.40;;;;;;;36.88;nan;100603.06;5103848;28;20471;-48
2023/07/04 02:36:32;;;;;;;8.02;4.20;;;;;;;34.84;nan;100590.88;5102696;28;20052;-48
2023/07/04 02:38:59;;;;;;;9.55;4.63;;;;;;;35.12;nan;100592.13;5106837;28;20044;-48
2023/07/04 02:41:26;;;;;;;10.50;4.63;;;;;;;37.90;nan;100598.31;5096972;28;20047;-48
2023/07/04 02:43:52;;;;;;;17.02;4.63;;;;;;;36.63;nan;100601.47;5093608;28;20050;-48
2023/07/04 02:46:19;;;;;;;11.40;4.32;;;;;;;36.86;nan;100592.28;5092788;28;20557;-47
2023/07/04 02:48:46;;;;;;;14.10;4.60;;;;;;;36.04;nan;100589.84;5093311;28;20048;-48
2023/07/04 02:51:12;;;;;;;15.20;4.22;;;;;;;37.31;nan;100596.09;5093936;28;20048;-48
2023/07/04 02:53:39;;;;;;;12.02;4.10;;;;;;;36.73;nan;100596.22;5093553;28;20056;-49
2023/07/04 02:56:06;;;;;;;10.93;5.05;;;;;;;39.12;nan;100579.78;5092171;28;20105;-48
2023/07/04 02:58:33;;;;;;;13.25;3.92;;;;;;;36.61;nan;100589.88;5093216;28;20047;-48
2023/07/04 03:01:03;;;;;;;9.85;4.70;;;;;;;37.96;nan;100596.44;5092497;28;20048;-48
2023/07/04 03:03:30;;;;;;;9.13;3.80;;;;;;;36.15;nan;100606.31;5092854;28;20052;-48
2023/07/04 03:05:57;;;;;;;13.55;3.80;;;;;;;35.81;nan;100613.56;5099930;28;20514;-48
2023/07/04 03:08:24;;;;;;;10.65;4.72;;;;;;;36.11;nan;100607.91;5093250;28;20082;-48
2023/07/04 03:10:50;;;;;;;8.77;4.75;;;;;;;35.84;nan;100610.34;5094111;28;20063;-48
2023/07/04 03:13:17;;;;;;;11.30;4.75;;;;;;;36.89;nan;100604.72;5093807;28;20048;-48
2023/07/04 03:15:44;;;;;;;13.18;4.45;;;;;;;37.81;nan;100606.22;5092867;28;20056;-48
2023/07/04 03:18:10;;;;;;;15.73;5.13;;;;;;;34.98;nan;100607.13;5094213;28;20052;-48
2023/07/04 03:20:37;;;;;;;12.10;5.30;;;;;;;35.87;nan;100606.25;5103791;28;20059;-49
2023/07/04 03:23:04;;;;;;;14.60;4.45;;;;;;;35.31;nan;100611.25;5114353;28;20373;-49
2023/07/04 03:25:31;;;;;;;9.77;4.65;;;;;;;35.32;nan;100610.22;5107188;28;20361;-48
2023/07/04 03:27:57;;;;;;;17.25;5.13;;;;;;;35.59;nan;100610.53;5110536;28;20123;-47
2023/07/04 03:30:24;;;;;;;13.90;5.03;;;;;;;37.59;nan;100613.59;5119192;28;20047;-47
2023/07/04 03:32:50;;;;;;;14.38;4.95;;;;;;;37.66;nan;100608.72;5109496;28;20052;-47
2023/07/04 03:35:17;;;;;;;13.38;4.72;;;;;;;39.68;nan;100615.25;5092349;28;20592;-47
2023/07/04 03:37:44;;;;;;;11.15;4.55;;;;;;;36.12;nan;100622.47;5096457;28;20055;-47
2023/07/04 03:40:11;;;;;;;14.25;4.68;;;;;;;36.23;nan;100624.38;5096863;28;20059;-47
2023/07/04 03:42:39;;;;;;;17.42;5.03;;;;;;;37.64;nan;100621.94;5095415;28;20555;-47
2023/07/04 03:45:07;;;;;;;11.45;4.95;;;;;;;37.04;nan;100634.44;5096047;28;20051;-47
2023/07/04 03:47:33;;;;;;;9.75;4.57;;;;;;;37.14;nan;100634.63;5095891;28;20050;-49
2023/07/04 03:50:00;;;;;;;19.65;5.15;;;;;;;36.62;nan;100638.38;5095665;28;20059;-49
2023/07/04 03:52:27;;;;;;;12.02;4.30;;;;;;;37.50;nan;100631.63;5104779;28;20047;-47
2023/07/04 03:54:53;;;;;;;11.95;4.95;;;;;;;38.18;nan;100624.91;5112445;28;20078;-47
2023/07/04 03:57:20;;;;;;;15.95;4.65;;;;;;;38.61;nan;100641.69;5109696;28;20082;-49
2023/07/04 03:59:47;;;;;;;11.82;4.75;;;;;;;35.47;nan;100646.28;5113085;28;20465;-49
2023/07/04 04:02:13;;;;;;;10.15;4.50;;;;;;;34.31;nan;100643.72;5108816;28;20043;-48
2023/07/04 04:04:40;;;;;;;16.55;4.93;;;;;;;37.64;nan;100644.81;5112911;28;20458;-48
2023/07/04 04:07:10;;;;;;;10.35;3.78;;;;;;;37.41;nan;100648.59;5108084;28;20052;-48
2023/07/04 04:09:38;;;;;;;13.23;4.47;;;;;;;37.86;nan;100657.00;5095754;28;20052;-48
2023/07/04 04:12:06;;;;;;;13.77;4.75;;;;;;;37.76;nan;100652.19;5098917;28;20044;-48
2023/07/04 04:14:36;;;;;;;9.38;4.65;;;;;;;39.07;nan;100655.16;5107688;28;20063;-48
2023/07/04 04:17:04;;;;;;;12.30;4.10;;;;;;;35.15;nan;100657.56;5095826;28;20121;-49
2023/07/04 04:19:30;;;;;;;14.75;4.18;;;;;;;35.55;nan;100658.84;5103114;28;20050;-48
2023/07/04 04:21:57;;;;;;;10.30;4.32;;;;;;;34.47;nan;100678.75;5132733;28;20363;-48
2023/07/04 04:24:23;;;;;;;13.02;4.20;;;;;;;33.89;nan;100669.06;5126229;27;20055;-49
2023/07/04 04:26:50;;;;;;;14.95;4.85;;;;;;;33.63;nan;100678.34;5106496;28;20052;-48
2023/07/04 04:29:17;;;;;;;11.70;4.00;;;;;;;35.87;nan;100675.84;5092600;28;20056;-48
2023/07/04 04:31:45;;;;;;;12.10;4.18;;;;;;;34.74;nan;100672.97;5106041;28;20065;-48
2023/07/04 04:34:12;;;;;;;8.43;4.40;;;;;;;34.63;nan;100687.44;5101979;28;20059;-48
2023/07/04 04:36:38;;;;;;;12.88;5.20;;;;;;;35.20;nan;100685.16;5101901;28;20065;-48
2023/07/04 04:39:05;;;;;;;10.68;4.40;;;;;;;33.84;nan;100685.34;5094136;28;20048;-49
2023/07/04 04:41:32;;;;;;;12.32;4.10;;;;;;;34.48;nan;100696.06;5092017;28;20120;-48
2023/07/04 04:43:59;;;;;;;16.00;4.68;;;;;;;35.46;nan;100691.34;5093035;28;20554;-49
2023/07/04 04:46:26;;;;;;;10.52;4.25;;;;;;;35.27;nan;100694.13;5092230;28;20056;-48
2023/07/04 04:48:53;;;;;;;10.73;4.25;;;;;;;34.69;nan;100698.31;5092339;28;20048;-48
2023/07/04 04:51:22;;;;;;;12.82;3.83;;;;;;;35.56;nan;100694.31;5095417;28;20048;-48
2023/07/04 04:53:48;;;;;;;10.95;3.97;;;;;;;38.15;nan;100707.38;5101918;28;20074;-48
2023/07/04 04:56:15;;;;;;;11.00;4.95;;;;;;;35.05;nan;100713.06;5102084;28;20052;-48
2023/07/04 04:58:43;;;;;;;9.63;4.18;;;;;;;37.66;nan;100714.31;5106243;28;20052;-48
2023/07/04 05:01:16;;;;;;;9.80;4.50;;;;;;;35.12;nan;100718.44;5098865;28;20059;-48
2023/07/04 05:03:43;;;;;;;15.95;4.55;;;;;;;34.42;nan;100719.75;5106687;28;20043;-48
2023/07/04 05:06:11;;;;;;;13.85;4.50;;;;;;;37.71;nan;100715.53;5107796;27;20052;-48
2023/07/04 05:08:38;;;;;;;11.38;4.45;;;;;;;36.18;nan;100717.78;5098456;28;20524;-49
2023/07/04 05:11:07;;;;;;;12.70;4.63;;;;;;;36.41;nan;100716.06;5096376;28;20055;-49
2023/07/04 05:13:36;;;;;;;9.95;4.53;;;;;;;36.59;nan;100721.44;5115076;28;20044;-49
2023/07/04 05:16:12;;;;;;;18.65;5.13;;;;;;;33.72;nan;100729.06;5103986;28;20052;-49
2023/07/04 05:18:39;;;;;;;17.00;4.85;;;;;;;34.39;nan;100720.19;5107085;28;20351;-50
2023/07/04 05:21:11;;;;;;;12.75;4.60;;;;;;;34.33;nan;100729.34;5113894;28;20051;-49
2023/07/04 05:23:40;;;;;;;14.80;4.88;;;;;;;34.90;nan;100731.84;5106417;28;20056;-50
2023/07/04 05:26:10;;;;;;;19.88;4.95;;;;;;;34.36;nan;100731.63;5095616;28;20070;-48
2023/07/04 05:28:38;;;;;;;8.45;4.22;;;;;;;33.93;nan;100746.19;5103987;28;20044;-47
2023/07/04 05:31:14;;;;;;;11.52;4.38;;;;;;;38.04;nan;100744.97;5097209;28;20056;-47
2023/07/04 05:33:42;;;;;;;22.23;4.72;;;;;;;34.69;nan;100744.97;5100439;28;20542;-48
2023/07/04 05:36:11;;;;;;;15.70;4.30;;;;;;;35.34;nan;100743.47;5115893;28;20482;-48
2023/07/04 05:38:38;;;;;;;14.32;3.85;;;;;;;35.14;nan;100743.75;5113702;28;20055;-50
2023/07/04 05:41:09;;;;;;;15.00;4.60;;;;;;;35.38;nan;100746.63;5095593;28;20113;-49
2023/07/04 05:43:36;;;;;;;;;;;;;;;39.81;nan;100747.56;5102536;28;20105;-46
2023/07/04 05:46:04;;;;;;;10.27;4.60;;;;;;;39.53;nan;100752.34;5109482;28;20033;-49
2023/07/04 05:48:31;;;;;;;15.80;4.80;;;;;;;35.32;nan;100739.31;5096949;28;20056;-48
2023/07/04 05:51:00;;;;;;;14.07;4.63;;;;;;;35.00;nan;100753.25;5093500;28;20464;-48
2023/07/04 05:53:29;;;;;;;16.92;4.88;;;;;;;35.48;nan;100757.88;5098652;28;20117;-48
2023/07/04 05:56:16;;;;;;;15.02;5.45;;;;;;;38.27;nan;100757.75;5109596;28;20052;-48
2023/07/04 05:58:47;;;;;;;16.00;4.78;;;;;;;37.97;nan;100760.88;5099008;28;20429;-48
2023/07/04 06:01:24;;;;;;;11.40;5.85;;;;;;;37.41;nan;100758.84;5099188;28;20059;-48
2023/07/04 06:03:53;;;;;;;20.23;5.95;;;;;;;35.59;nan;100754.31;5093754;28;20055;-48
2023/07/04 06:06:25;;;;;;;15.27;5.35;;;;;;;34.63;nan;100765.09;5102175;28;20044;-48
2023/07/04 06:08:53;;;;;;;11.70;5.03;;;;;;;36.40;nan;100777.69;5113330;28;20082;-48
2023/07/04 06:11:21;;;;;;;10.40;4.03;;;;;;;37.14;nan;100777.84;5121805;27;20051;-48
2023/07/04 06:13:48;;;;;;;20.33;5.45;;;;;;;37.66;nan;100786.00;5125060;27;20109;-48
2023/07/04 06:16:15;;;;;;;13.13;4.65;;;;;;;35.73;nan;100779.66;5110410;28;20046;-48
2023/07/04 06:18:43;;;;;;;21.20;4.57;;;;;;;36.29;nan;100777.47;5107250;28;20062;-48
2023/07/04 06:21:13;;;;;;;13.60;5.28;;;;;;;36.86;nan;100775.94;5097907;28;20054;-48
2023/07/04 06:23:41;;;;;;;13.88;5.18;;;;;;;36.43;nan;100790.97;5101366;27;20081;-48
2023/07/04 06:26:10;;;;;;;17.13;5.25;;;;;;;37.13;nan;100780.84;5101637;28;20129;-48
2023/07/04 06:28:38;;;;;;;14.13;4.65;;;;;;;37.20;nan;100782.41;5096795;28;20044;-48
2023/07/04 06:31:07;;;;;;;13.77;4.80;;;;;;;36.07;nan;100768.97;5097751;28;20582;-48
2023/07/04 06:33:34;;;;;;;15.32;5.22;;;;;;;36.31;nan;100780.81;5100368;27;20100;-48
2023/07/04 06:36:01;;;;;;;15.05;4.90;;;;;;;35.40;nan;100780.19;5111479;27;20058;-48
2023/07/04 06:38:28;;;;;;;12.75;4.18;;;;;;;36.10;nan;100784.97;5095638;28;20060;-48
2023/07/04 06:41:00;;;;;;;14.55;5.68;;;;;;;36.91;nan;100796.19;5093193;28;20055;-48
2023/07/04 06:43:28;;;;;;;15.38;5.18;;;;;;;34.99;nan;100801.84;5104796;28;20077;-48
2023/07/04 06:45:56;;;;;;;12.57;4.82;;;;;;;34.42;nan;100791.06;5095016;28;20048;-48
2023/07/04 06:48:23;;;;;;;14.48;5.07;;;;;;;35.83;nan;100787.34;5096939;28;20056;-48
2023/07/04 06:51:01;;;;;;;16.48;4.43;;;;;;;35.28;nan;100794.72;5096704;28;20051;-48
2023/07/04 06:53:29;;;;;;;17.35;5.57;;;;;;;38.25;nan;100793.03;5099640;28;20058;-48
2023/07/04 06:56:08;;;;;;;12.43;4.30;;;;;;;37.78;nan;100805.25;5096140;28;20048;-48
2023/07/04 06:58:38;;;;;;;13.32;4.53;;;;;;;37.62;nan;100806.88;5105765;27;20043;-48
2023/07/04 07:01:04;;;;;;;11.13;3.25;;;;;;;34.68;nan;100800.09;5104633;27;20047;-48
2023/07/04 07:03:32;;;;;;;14.10;3.28;;;;;;;35.96;nan;100805.53;5106249;27;20052;-48
2023/07/04 07:06:04;;;;;;;13.68;4.57;;;;;;;38.44;nan;100812.09;5112389;27;20046;-48
2023/07/04 07:08:31;;;;;;;10.32;4.32;;;;;;;35.77;nan;100818.53;5102121;28;20699;-50
2023/07/04 07:11:07;;;;;;;8.50;3.50;;;;;;;36.67;nan;100825.66;5108015;28;20431;-50
2023/07/04 07:13:35;;;;;;;10.80;3.53;;;;;;;34.64;nan;100826.28;5124474;27;20051;-49
2023/07/04 07:16:09;;;;;;;14.90;4.55;;;;;;;36.94;nan;100827.88;5116496;27;20512;-47
2023/07/04 07:18:37;;;;;;;11.75;3.60;;;;;;;36.26;nan;100824.72;5116203;27;20043;-49
2023/07/04 07:21:05;;;;;;;7.35;2.60;;;;;;;38.82;nan;100827.78;5116077;27;20082;-48
2023/07/04 07:23:34;;;;;;;7.32;3.40;;;;;;;35.56;nan;100837.22;5127832;27;20050;-49
2023/07/04 07:26:02;;;;;;;9.63;2.78;;;;;;;36.84;nan;100838.69;5117165;27;20051;-49
2023/07/04 07:28:30;;;;;;;10.95;2.70;;;;;;;35.82;nan;100843.44;5120445;27;20056;-49
2023/07/04 07:31:08;;;;;;;16.38;2.65;;;;;;;36.82;nan;100840.84;5122409;27;20056;-49
2023/07/04 07:33:37;;;;;;;8.95;2.90;;;;;;;35.45;nan;100838.84;5130119;27;20043;-48
2023/07/04 07:36:30;;;;;;;8.27;2.55;;;;;;;39.20;nan;100842.66;5113877;27;20044;-48
2023/07/04 07:38:57;;;;;;;10.38;3.13;;;;;;;37.41;nan;100833.25;5093263;28;20051;-49
2023/07/04 07:41:30;;;;;;;6.43;2.55;;;;;;;35.43;nan;100841.00;5092776;28;20060;-49
2023/07/04 07:43:57;;;;;;;14.68;3.03;;;;;;;36.56;nan;100835.59;5101288;28;20076;-49
2023/07/04 07:46:24;;;;;;;10.45;2.72;;;;;;;33.96;nan;100849.91;5113931;28;20044;-49
2023/07/04 07:48:51;;;;;;;11.10;2.65;;;;;;;36.11;nan;100829.81;5113144;28;20501;-49
2023/07/04 07:51:19;;;;;;;5.72;2.65;;;;;;;34.48;nan;100839.56;5103398;28;20147;-48
2023/07/04 07:53:48;;;;;;;9.82;2.83;;;;;;;37.28;nan;100828.03;5093778;28;20434;-49
2023/07/04 07:56:17;;;;;;;9.30;2.65;;;;;;;38.37;nan;100832.41;5092069;28;20056;-48
2023/07/04 07:58:43;;;;;;;10.63;2.72;;;;;;;35.08;nan;100833.41;5107016;28;20101;-48
2023/07/04 08:01:14;;;;;;;12.27;2.95;;;;;;;36.50;nan;100838.47;5109908;28;20119;-49
2023/07/04 08:03:42;;;;;;;9.10;3.00;;;;;;;35.89;nan;100837.81;5112480;28;20047;-49
2023/07/04 08:06:18;;;;;;;5.28;2.35;;;;;;;36.23;nan;100844.47;5112463;28;20047;-49
2023/07/04 08:08:45;;;;;;;6.85;2.70;;;;;;;37.23;nan;100852.75;5112703;28;20117;-47
2023/07/04 08:11:16;;;;;;;9.57;2.60;;;;;;;38.14;nan;100836.22;5101986;28;20116;-49
2023/07/04 08:13:43;;;;;;;9.32;3.40;;;;;;;38.03;nan;100855.59;5120077;28;20040;-49
2023/07/04 08:16:10;;;;;;;8.65;2.85;;;;;;;35.46;nan;100851.53;5123484;28;20352;-49
2023/07/04 08:18:37;;;;;;;9.13;2.15;;;;;;;37.35;nan;100866.47;5129062;27;20047;-47
2023/07/04 08:21:04;;;;;;;9.73;2.42;;;;;;;37.59;nan;100856.19;5118889;27;20051;-49
2023/07/04 08:23:31;;;;;;;7.93;3.03;;;;;;;36.47;nan;100849.94;5117889;27;20055;-49
2023/07/04 08:25:58;;;;;;;6.53;2.47;;;;;;;38.81;nan;100850.13;5112396;27;20052;-50
2023/07/04 08:28:28;;;;;;;10.18;2.35;;;;;;;38.35;nan;100847.53;5115953;27;20043;-49
2023/07/04 08:31:04;;;;;;;13.20;3.53;;;;;;;36.32;nan;100847.69;5108832;27;20462;-49
2023/07/04 08:33:31;;;;;;;7.15;2.90;;;;;;;40.11;nan;100845.75;5116296;28;20043;-49
2023/07/04 08:36:01;;;;;;;11.13;3.55;;;;;;;38.60;nan;100854.53;5123985;27;20070;-47
2023/07/04 08:38:28;;;;;;;10.18;2.35;;;;;;;36.41;nan;100857.25;5117989;27;20048;-49
2023/07/04 08:40:56;;;;;;;9.93;2.55;;;;;;;35.35;nan;100867.97;5123807;27;20047;-47
2023/07/04 08:43:31;;;;;;;9.23;2.53;;;;;;;36.37;nan;100867.91;5130670;27;20096;-47
2023/07/04 08:45:58;;;;;;;7.60;2.35;;;;;;;37.66;nan;100863.19;5121312;27;20055;-47
2023/07/04 08:48:26;;;;;;;8.43;2.70;;;;;;;35.89;nan;100860.66;5104340;28;20048;-47
2023/07/04 08:50:56;;;;;;;7.72;2.33;;;;;;;38.38;nan;100869.13;5112225;27;20056;-49
2023/07/04 08:53:22;;;;;;;8.18;1.83;;;;;;;37.77;nan;100864.25;5127036;27;20503;-49
2023/07/04 08:56:20;;;;;;;7.40;2.03;;;;;;;36.42;nan;100869.94;5119927;27;20047;-49
2023/07/04 08:58:59;;;;;;;9.27;2.35;;;;;;;37.45;nan;100867.50;5120549;27;20035;-49
2023/07/04 09:01:39;;;;;;;5.35;1.95;;;;;;;38.54;nan;100867.44;5137293;27;20069;-49
2023/07/04 09:04:28;;;;;;;3.60;2.00;;;;;;;37.87;nan;100869.09;5115968;27;20055;-49
2023/07/04 09:07:10;;;;;;;6.40;2.30;;;;;;;40.87;nan;100875.91;5135297;27;20055;-49
2023/07/04 09:09:51;;;;;;;9.02;2.65;;;;;;;35.46;nan;100861.69;5136485;27;20127;-49
2023/07/04 09:12:18;;;;;;;7.25;2.05;;;;;;;36.12;nan;100875.50;5124276;27;20055;-49
2023/07/04 09:15:30;;;;;;;10.65;2.30;;;;;;;36.22;nan;100873.00;5126546;27;20055;-49
2023/07/04 09:18:14;;;;;;;9.93;3.63;;;;;;;36.37;nan;100872.56;5061380;28;20408;-49
2023/07/04 09:20:55;;;;;;;;;;;;;;;37.89;nan;100877.13;5099828;27;20058;-47
2023/07/04 09:23:23;;;;;;;11.85;2.83;;;;;;;39.03;nan;100886.06;5114964;27;20342;-48
2023/07/04 09:25:56;;;;;;;11.35;2.70;;;;;;;40.07;nan;100880.56;5126921;27;20063;-49
2023/07/04 09:28:23;;;;;;;7.63;2.40;;;;;;;37.93;nan;100894.88;5098274;27;20052;-49
2023/07/04 09:30:58;;;;;;;9.40;2.15;;;;;;;37.69;nan;100894.97;5094959;28;20060;-48
2023/07/04 09:33:27;;;;;;;9.30;2.13;;;;;;;39.23;nan;100880.81;5095285;28;20055;-48
2023/07/04 09:35:56;;;;;;;9.23;2.30;;;;;;;36.59;nan;100886.56;5095190;28;20499;-48
2023/07/04 09:38:23;;;;;;;10.63;1.88;;;;;;;39.27;nan;100873.69;5114341;28;20116;-48
2023/07/04 09:40:52;;;;;;;9.57;1.73;;;;;;;36.64;nan;100883.94;5115223;28;20589;-47
2023/07/04 09:43:27;;;;;;;7.78;1.60;;;;;;;36.83;nan;100881.06;5115397;28;20048;-48
2023/07/04 09:46:30;;;;;;;6.35;2.22;;;;;;;40.38;nan;100881.66;5119290;27;20055;-48
2023/07/04 09:49:18;;;;;;;7.78;1.75;;;;;;;37.65;nan;100899.31;5110119;27;20054;-48
2023/07/04 09:52:01;;;;;;;14.75;2.17;;;;;;;37.24;nan;100899.34;5102242;27;20052;-48
2023/07/04 09:54:32;;;;;;;7.25;1.83;;;;;;;38.02;nan;100890.59;5108882;27;20401;-48
2023/07/04 09:57:21;;;;;;;8.45;2.63;;;;;;;37.50;nan;100891.56;5117775;27;20155;-48
2023/07/04 09:59:48;;;;;;;6.75;1.90;;;;;;;38.09;nan;100899.56;5120545;27;20055;-49
2023/07/04 10:02:19;;;;;;;5.40;1.80;;;;;;;38.96;nan;100896.47;5120010;27;20093;-48
2023/07/04 10:04:46;;;;;;;;;;;;;;;37.56;nan;100895.25;5121354;27;20044;-48
2023/07/04 10:07:14;;;;;;;7.10;1.92;;;;;;;36.96;nan;100883.53;5118855;27;19945;-48
2023/07/04 10:09:52;;;;;;;5.97;1.73;;;;;;;37.06;nan;100896.69;5116652;27;20054;-49
2023/07/04 10:12:20;;;;;;;5.00;2.22;;;;;;;35.98;nan;100885.88;5118022;27;20047;-48
2023/07/04 10:14:57;;;;;;;4.60;1.60;;;;;;;38.61;nan;100883.84;5121157;27;20045;-50
2023/07/04 10:17:26;;;;;;;8.45;2.30;;;;;;;40.58;nan;100878.22;5118379;27;20051;-47
2023/07/04 10:20:05;;;;;;;6.95;2.10;;;;;;;41.19;nan;100887.94;5121791;27;20051;-47
2023/07/04 10:22:35;;;;;;;14.70;2.38;;;;;;;39.53;nan;100901.66;5116895;27;20062;-47
2023/07/04 10:25:05;;;;;;;5.57;1.80;;;;;;;39.13;nan;100902.78;5123250;27;20111;-47
2023/07/04 10:27:37;;;;;;;7.07;3.03;;;;;;;39.45;nan;100888.25;5119073;27;20100;-47
2023/07/04 10:30:08;;;;;;;14.10;3.08;;;;;;;38.73;nan;100898.38;5121462;27;20052;-47
2023/07/04 10:32:41;;;;;;;6.10;2.20;;;;;;;37.87;nan;100895.84;5121583;27;20451;-47
2023/07/04 10:35:20;;;;;;;8.95;2.38;;;;;;;39.02;nan;100901.81;5120396;27;20467;-49
2023/07/04 10:37:56;;;;;;;6.15;2.03;;;;;;;38.41;nan;100901.75;5117330;27;20058;-49
2023/07/04 10:40:25;;;;;;;6.40;2.33;;;;;;;37.59;nan;100906.63;5119724;27;20060;-48
2023/07/04 10:43:32;;;;;;;5.63;2.25;;;;;;;38.24;nan;100900.91;5122546;27;20119;-49
2023/07/04 10:46:01;;;;;;;8.32;2.70;;;;;;;40.31;nan;100898.47;5083230;27;20051;-47
2023/07/04 10:48:33;;;;;;;8.88;2.58;;;;;;;42.13;nan;100885.94;5113045;27;20054;-47
2023/07/04 10:51:09;;;;;;;8.93;2.30;;;;;;;43.61;nan;100883.75;5114664;27;20447;-47
2023/07/04 10:53:35;;;;;;;16.73;2.80;;;;;;;41.68;nan;100884.75;5119456;27;20332;-47
2023/07/04 10:56:10;;;;;;;13.60;3.20;;;;;;;39.59;nan;100894.22;5114275;27;20058;-47
2023/07/04 10:58:42;;;;;;;9.52;2.95;;;;;;;36.27;nan;100895.16;5113795;27;20063;-47
2023/07/04 11:01:16;;;;;;;8.20;2.80;;;;;;;37.42;nan;100905.72;5119980;27;20440;-47
2023/07/04 11:03:58;;;;;;;9.93;3.10;;;;;;;38.18;nan;100913.78;5118856;27;20035;-47
2023/07/04 11:06:40;;;;;;;7.80;2.72;;;;;;;38.17;nan;100907.44;5117980;27;20055;-47
2023/07/04 11:09:12;;;;;;;7.53;3.33;;;;;;;37.90;nan;100906.41;5120696;27;20063;-49
2023/07/04 11:11:43;;;;;;;10.65;3.05;;;;;;;38.06;nan;100905.56;5124500;27;20066;-47
2023/07/04 11:14:18;;;;;;;11.00;2.80;;;;;;;39.41;nan;100914.72;5118976;27;20442;-49
2023/07/04 11:16:45;;;;;;;10.73;2.97;;;;;;;37.84;nan;100916.47;5115003;27;20058;-47
2023/07/04 11:19:26;;;;;;;7.20;2.25;;;;;;;39.57;nan;100901.97;5122661;27;20410;-47
2023/07/04 11:22:00;;;;;;;9.85;2.47;;;;;;;39.01;nan;100916.72;5118890;27;20301;-47
2023/07/04 11:24:53;;;;;;;7.82;2.80;;;;;;;37.66;nan;100911.97;5118576;27;20055;-47
2023/07/04 11:27:26;;;;;;;10.88;3.58;;;;;;;36.80;nan;100909.94;5113989;27;20067;-47
2023/07/04 11:29:54;;;;;;;5.22;2.80;;;;;;;41.18;nan;100913.97;5119070;27;20051;-48
2023/07/04 11:32:52;;;;;;;10.20;2.75;;;;;;;39.18;nan;100922.19;5112691;27;20437;-47
2023/07/04 11:35:22;;;;;;;13.68;3.15;;;;;;;39.78;nan;100916.81;5119501;27;20444;-47
2023/07/04 11:37:52;;;;;;;9.32;3.15;;;;;;;42.18;nan;100916.47;5121156;27;20067;-48
2023/07/04 11:40:24;;;;;;;13.45;3.00;;;;;;;42.38;nan;100909.22;5107515;27;20085;-48
2023/07/04 11:43:21;;;;;;;8.63;2.22;;;;;;;41.42;nan;100911.59;5098589;28;20400;-48
2023/07/04 11:45:48;;;;;;;12.27;3.08;;;;;;;40.25;nan;100907.88;5100400;28;20056;-48
2023/07/04 11:48:17;;;;;;;6.72;2.60;;;;;;;44.56;nan;100905.78;5107156;28;20138;-48
2023/07/04 11:50:48;;;;;;;8.93;2.95;;;;;;;41.61;nan;100909.16;5102222;27;20055;-47
2023/07/04 11:53:23;;;;;;;6.72;3.17;;;;;;;37.92;nan;100912.50;5112319;27;20622;-47